CheckWX is a tool to help pilots better visualize weather data.  It is not intended as a substitute for an official pre-flight weather briefing.

08:01:38 UTC

LGEL TAF
Elefsis Airport
Elefsina, Greece
TAF LGEL 271100Z 2712/2812 35015KT 9999 SCT025 SCT070 PROB40 TEMPO 2712/2718 5000 RA FEW018TCU SCT020 BKN070 PROB30 TEMPO 2712/2716 4000 TSRA SCT012 FEW018CB BKN025 PROB30 TEMPO 2810/2812 5000 SHRA FEW018CB BKN030

May-27@
12:00 UTC

May-27 @ 12:00 UTC

May-28@
12:00 UTC

May-28 @ 12:00 UTC

TAF LGEL 271100Z 2712/2812 35015KT 9999 SCT025 SCT070
Wind
  • 350° at 15 KTS
Cloud Levels
  • Scattered at 2,500' AGL
  • Scattered at 7,000' AGL

May-27@
12:00 UTC

May-27 @ 12:00 UTC

May-27@
16:00 UTC

May-27 @ 16:00 UTC

PROB30 TEMPO 2712/2716 4000 TSRA SCT012 FEW018CB BKN025

Expired

Conditions
Thunderstorm, Rain
Cloud Levels
  • Scattered at 1,200' AGL
  • Few at 1,800' AGL
  • Broken at 2,500' AGL

May-27@
12:00 UTC

May-27 @ 12:00 UTC

May-27@
18:00 UTC

May-27 @ 18:00 UTC

PROB40 TEMPO 2712/2718 5000 RA FEW018TCU SCT020 BKN070

Expired

Conditions
Rain
Cloud Levels
  • Few at 1,800' AGL
  • Scattered at 2,000' AGL
  • Broken at 7,000' AGL

May-28@
10:00 UTC

May-28 @ 10:00 UTC

May-28@
12:00 UTC

May-28 @ 12:00 UTC

PROB30 TEMPO 2810/2812 5000 SHRA FEW018CB BKN030

Temporary - 30% Likelihood

Temporary - 30% Likelihood during this time.

Conditions
Showers, Rain
Cloud Levels
  • Few at 1,800' AGL
  • Broken at 3,000' AGL